sensor_id;sensor_type;location;lat;lon;timestamp;P1;durP1;ratioP1;P2;durP2;ratioP2
3197;SDS011;1611;49.394;11.136;2023-05-29T00:00:45;10.63;;;4.53;;
3197;SDS011;1611;49.394;11.136;2023-05-29T00:03:12;4.23;;;3.80;;
3197;SDS011;1611;49.394;11.136;2023-05-29T00:05:40;7.53;;;5.03;;
3197;SDS011;1611;49.394;11.136;2023-05-29T00:08:07;11.23;;;4.30;;
3197;SDS011;1611;49.394;11.136;2023-05-29T00:10:33;7.13;;;4.70;;
3197;SDS011;1611;49.394;11.136;2023-05-29T00:13:02;5.50;;;4.20;;
3197;SDS011;1611;49.394;11.136;2023-05-29T00:15:29;7.20;;;3.93;;
3197;SDS011;1611;49.394;11.136;2023-05-29T00:17:56;8.27;;;4.47;;
3197;SDS011;1611;49.394;11.136;2023-05-29T00:20:23;6.30;;;4.33;;
3197;SDS011;1611;49.394;11.136;2023-05-29T00:22:51;6.50;;;4.23;;
3197;SDS011;1611;49.394;11.136;2023-05-29T00:25:17;6.70;;;5.00;;
3197;SDS011;1611;49.394;11.136;2023-05-29T00:27:44;10.27;;;4.77;;
3197;SDS011;1611;49.394;11.136;2023-05-29T00:30:11;6.50;;;3.90;;
3197;SDS011;1611;49.394;11.136;2023-05-29T00:32:38;9.07;;;4.40;;
3197;SDS011;1611;49.394;11.136;2023-05-29T00:35:06;7.20;;;4.43;;
3197;SDS011;1611;49.394;11.136;2023-05-29T00:37:33;5.50;;;4.43;;
3197;SDS011;1611;49.394;11.136;2023-05-29T00:40:02;7.23;;;4.50;;
3197;SDS011;1611;49.394;11.136;2023-05-29T00:42:29;4.30;;;3.90;;
3197;SDS011;1611;49.394;11.136;2023-05-29T00:44:56;8.97;;;4.70;;
3197;SDS011;1611;49.394;11.136;2023-05-29T00:47:23;5.30;;;4.60;;
3197;SDS011;1611;49.394;11.136;2023-05-29T00:49:50;5.67;;;4.37;;
3197;SDS011;1611;49.394;11.136;2023-05-29T00:52:19;9.00;;;4.53;;
3197;SDS011;1611;49.394;11.136;2023-05-29T00:54:46;10.40;;;4.57;;
3197;SDS011;1611;49.394;11.136;2023-05-29T00:57:14;10.53;;;4.80;;
3197;SDS011;1611;49.394;11.136;2023-05-29T00:59:43;5.80;;;4.07;;
3197;SDS011;1611;49.394;11.136;2023-05-29T01:02:11;7.80;;;4.07;;
3197;SDS011;1611;49.394;11.136;2023-05-29T01:04:41;10.60;;;4.07;;
3197;SDS011;1611;49.394;11.136;2023-05-29T01:07:08;6.03;;;4.33;;
3197;SDS011;1611;49.394;11.136;2023-05-29T01:09:35;8.10;;;4.40;;
3197;SDS011;1611;49.394;11.136;2023-05-29T01:12:04;11.43;;;4.93;;
3197;SDS011;1611;49.394;11.136;2023-05-29T01:14:45;9.47;;;4.80;;
3197;SDS011;1611;49.394;11.136;2023-05-29T01:17:24;8.53;;;4.73;;
3197;SDS011;1611;49.394;11.136;2023-05-29T01:20:06;5.40;;;4.60;;
3197;SDS011;1611;49.394;11.136;2023-05-29T01:22:43;8.00;;;4.70;;
3197;SDS011;1611;49.394;11.136;2023-05-29T01:25:21;4.80;;;4.27;;
3197;SDS011;1611;49.394;11.136;2023-05-29T01:27:57;5.70;;;4.37;;
3197;SDS011;1611;49.394;11.136;2023-05-29T01:30:27;7.90;;;4.53;;
3197;SDS011;1611;49.394;11.136;2023-05-29T01:32:57;5.23;;;4.63;;
3197;SDS011;1611;49.394;11.136;2023-05-29T01:35:24;9.73;;;4.63;;
3197;SDS011;1611;49.394;11.136;2023-05-29T01:37:51;5.87;;;4.30;;
3197;SDS011;1611;49.394;11.136;2023-05-29T01:40:18;8.30;;;4.60;;
3197;SDS011;1611;49.394;11.136;2023-05-29T01:42:45;9.17;;;5.47;;
3197;SDS011;1611;49.394;11.136;2023-05-29T01:45:13;9.87;;;4.83;;
3197;SDS011;1611;49.394;11.136;2023-05-29T01:47:42;9.00;;;4.93;;
3197;SDS011;1611;49.394;11.136;2023-05-29T01:50:09;5.70;;;4.53;;
3197;SDS011;1611;49.394;11.136;2023-05-29T01:52:39;9.03;;;4.63;;
3197;SDS011;1611;49.394;11.136;2023-05-29T01:55:06;8.37;;;4.83;;
3197;SDS011;1611;49.394;11.136;2023-05-29T01:57:33;9.10;;;5.00;;
3197;SDS011;1611;49.394;11.136;2023-05-29T02:00:02;8.40;;;5.00;;
3197;SDS011;1611;49.394;11.136;2023-05-29T02:02:36;4.53;;;4.10;;
3197;SDS011;1611;49.394;11.136;2023-05-29T02:05:03;7.60;;;4.20;;
3197;SDS011;1611;49.394;11.136;2023-05-29T02:07:31;11.40;;;5.03;;
3197;SDS011;1611;49.394;11.136;2023-05-29T02:09:58;6.63;;;4.33;;
3197;SDS011;1611;49.394;11.136;2023-05-29T02:12:25;7.60;;;4.90;;
3197;SDS011;1611;49.394;11.136;2023-05-29T02:14:51;7.70;;;4.67;;
3197;SDS011;1611;49.394;11.136;2023-05-29T02:17:19;6.67;;;4.67;;
3197;SDS011;1611;49.394;11.136;2023-05-29T02:19:47;5.30;;;4.17;;
3197;SDS011;1611;49.394;11.136;2023-05-29T02:22:13;11.97;;;5.20;;
3197;SDS011;1611;49.394;11.136;2023-05-29T02:24:40;6.57;;;4.30;;
3197;SDS011;1611;49.394;11.136;2023-05-29T02:27:07;6.43;;;4.17;;
3197;SDS011;1611;49.394;11.136;2023-05-29T02:29:34;4.23;;;3.80;;
3197;SDS011;1611;49.394;11.136;2023-05-29T02:32:01;8.60;;;5.00;;
3197;SDS011;1611;49.394;11.136;2023-05-29T02:34:27;10.00;;;4.93;;
3197;SDS011;1611;49.394;11.136;2023-05-29T02:36:55;12.17;;;4.93;;
3197;SDS011;1611;49.394;11.136;2023-05-29T02:39:22;10.90;;;5.10;;
3197;SDS011;1611;49.394;11.136;2023-05-29T02:41:49;11.30;;;5.57;;
3197;SDS011;1611;49.394;11.136;2023-05-29T02:44:16;9.20;;;5.00;;
3197;SDS011;1611;49.394;11.136;2023-05-29T02:46:43;7.40;;;5.17;;
3197;SDS011;1611;49.394;11.136;2023-05-29T02:49:09;6.80;;;4.80;;
3197;SDS011;1611;49.394;11.136;2023-05-29T02:51:36;7.90;;;4.60;;
3197;SDS011;1611;49.394;11.136;2023-05-29T02:54:04;5.37;;;4.20;;
3197;SDS011;1611;49.394;11.136;2023-05-29T02:56:31;9.00;;;5.03;;
3197;SDS011;1611;49.394;11.136;2023-05-29T02:58:59;14.03;;;5.77;;
3197;SDS011;1611;49.394;11.136;2023-05-29T03:01:25;6.43;;;5.27;;
3197;SDS011;1611;49.394;11.136;2023-05-29T03:03:52;11.00;;;5.13;;
3197;SDS011;1611;49.394;11.136;2023-05-29T03:06:20;12.50;;;4.90;;
3197;SDS011;1611;49.394;11.136;2023-05-29T03:08:47;8.27;;;5.47;;
3197;SDS011;1611;49.394;11.136;2023-05-29T03:11:16;7.83;;;5.10;;
3197;SDS011;1611;49.394;11.136;2023-05-29T03:13:42;7.80;;;4.87;;
3197;SDS011;1611;49.394;11.136;2023-05-29T03:16:11;9.17;;;4.97;;
3197;SDS011;1611;49.394;11.136;2023-05-29T03:18:38;6.70;;;5.40;;
3197;SDS011;1611;49.394;11.136;2023-05-29T03:21:06;7.80;;;4.70;;
3197;SDS011;1611;49.394;11.136;2023-05-29T03:23:33;6.73;;;5.60;;
3197;SDS011;1611;49.394;11.136;2023-05-29T03:26:00;5.80;;;4.60;;
3197;SDS011;1611;49.394;11.136;2023-05-29T03:28:29;10.30;;;5.10;;
3197;SDS011;1611;49.394;11.136;2023-05-29T03:30:56;13.03;;;4.90;;
3197;SDS011;1611;49.394;11.136;2023-05-29T03:33:22;8.90;;;4.87;;
3197;SDS011;1611;49.394;11.136;2023-05-29T03:35:49;11.57;;;5.50;;
3197;SDS011;1611;49.394;11.136;2023-05-29T03:38:16;9.00;;;5.10;;
3197;SDS011;1611;49.394;11.136;2023-05-29T03:40:43;9.43;;;5.40;;
3197;SDS011;1611;49.394;11.136;2023-05-29T03:43:10;9.87;;;5.37;;
3197;SDS011;1611;49.394;11.136;2023-05-29T03:45:38;7.60;;;5.20;;
3197;SDS011;1611;49.394;11.136;2023-05-29T03:48:05;5.87;;;4.70;;
3197;SDS011;1611;49.394;11.136;2023-05-29T03:50:32;6.93;;;4.50;;
3197;SDS011;1611;49.394;11.136;2023-05-29T03:52:58;7.73;;;5.83;;
3197;SDS011;1611;49.394;11.136;2023-05-29T03:55:26;6.80;;;5.43;;
3197;SDS011;1611;49.394;11.136;2023-05-29T03:57:53;9.20;;;5.00;;
3197;SDS011;1611;49.394;11.136;2023-05-29T04:00:20;7.80;;;5.00;;
3197;SDS011;1611;49.394;11.136;2023-05-29T04:02:48;5.13;;;4.63;;
3197;SDS011;1611;49.394;11.136;2023-05-29T04:05:16;4.93;;;4.53;;
3197;SDS011;1611;49.394;11.136;2023-05-29T04:07:43;4.87;;;4.07;;
3197;SDS011;1611;49.394;11.136;2023-05-29T04:10:10;7.80;;;5.17;;
3197;SDS011;1611;49.394;11.136;2023-05-29T04:12:36;8.37;;;5.03;;
3197;SDS011;1611;49.394;11.136;2023-05-29T04:15:04;5.73;;;4.43;;
3197;SDS011;1611;49.394;11.136;2023-05-29T04:17:32;8.27;;;4.80;;
3197;SDS011;1611;49.394;11.136;2023-05-29T04:20:00;6.47;;;4.70;;
3197;SDS011;1611;49.394;11.136;2023-05-29T04:22:33;5.33;;;4.37;;
3197;SDS011;1611;49.394;11.136;2023-05-29T04:25:00;7.10;;;5.20;;
3197;SDS011;1611;49.394;11.136;2023-05-29T04:27:28;7.60;;;4.77;;
3197;SDS011;1611;49.394;11.136;2023-05-29T04:29:57;8.13;;;4.80;;
3197;SDS011;1611;49.394;11.136;2023-05-29T04:32:24;14.43;;;4.60;;
3197;SDS011;1611;49.394;11.136;2023-05-29T04:34:51;8.03;;;5.70;;
3197;SDS011;1611;49.394;11.136;2023-05-29T04:37:19;5.90;;;4.77;;
3197;SDS011;1611;49.394;11.136;2023-05-29T04:39:54;9.93;;;5.33;;
3197;SDS011;1611;49.394;11.136;2023-05-29T04:42:21;9.00;;;4.97;;
3197;SDS011;1611;49.394;11.136;2023-05-29T04:44:49;7.03;;;4.93;;
3197;SDS011;1611;49.394;11.136;2023-05-29T04:47:17;10.40;;;5.33;;
3197;SDS011;1611;49.394;11.136;2023-05-29T04:49:44;6.50;;;4.30;;
3197;SDS011;1611;49.394;11.136;2023-05-29T04:52:13;5.20;;;4.67;;
3197;SDS011;1611;49.394;11.136;2023-05-29T04:54:41;7.43;;;5.00;;
3197;SDS011;1611;49.394;11.136;2023-05-29T04:57:08;9.43;;;4.83;;
3197;SDS011;1611;49.394;11.136;2023-05-29T04:59:35;18.77;;;5.43;;
3197;SDS011;1611;49.394;11.136;2023-05-29T05:02:02;12.30;;;5.80;;
3197;SDS011;1611;49.394;11.136;2023-05-29T05:04:29;8.53;;;5.33;;
3197;SDS011;1611;49.394;11.136;2023-05-29T05:06:57;7.73;;;5.20;;
3197;SDS011;1611;49.394;11.136;2023-05-29T05:09:23;9.70;;;5.17;;
3197;SDS011;1611;49.394;11.136;2023-05-29T05:11:52;11.03;;;5.67;;
3197;SDS011;1611;49.394;11.136;2023-05-29T05:14:19;12.33;;;6.03;;
3197;SDS011;1611;49.394;11.136;2023-05-29T05:16:46;8.30;;;5.47;;
3197;SDS011;1611;49.394;11.136;2023-05-29T05:19:13;14.43;;;6.33;;
3197;SDS011;1611;49.394;11.136;2023-05-29T05:21:40;6.90;;;4.70;;
3197;SDS011;1611;49.394;11.136;2023-05-29T05:24:06;7.23;;;5.30;;
3197;SDS011;1611;49.394;11.136;2023-05-29T05:26:33;6.27;;;4.80;;
3197;SDS011;1611;49.394;11.136;2023-05-29T05:29:01;6.87;;;5.10;;
3197;SDS011;1611;49.394;11.136;2023-05-29T05:31:28;7.00;;;4.70;;
3197;SDS011;1611;49.394;11.136;2023-05-29T05:33:55;5.80;;;5.07;;
3197;SDS011;1611;49.394;11.136;2023-05-29T05:36:21;8.30;;;5.37;;
3197;SDS011;1611;49.394;11.136;2023-05-29T05:38:48;8.23;;;5.80;;
3197;SDS011;1611;49.394;11.136;2023-05-29T05:41:15;6.43;;;5.13;;
3197;SDS011;1611;49.394;11.136;2023-05-29T05:43:42;6.30;;;4.07;;
3197;SDS011;1611;49.394;11.136;2023-05-29T05:46:10;7.80;;;5.10;;
3197;SDS011;1611;49.394;11.136;2023-05-29T05:48:37;8.03;;;5.23;;
3197;SDS011;1611;49.394;11.136;2023-05-29T05:51:05;5.50;;;5.00;;
3197;SDS011;1611;49.394;11.136;2023-05-29T05:53:32;5.27;;;4.77;;
3197;SDS011;1611;49.394;11.136;2023-05-29T05:55:58;4.43;;;4.03;;
3197;SDS011;1611;49.394;11.136;2023-05-29T05:58:26;9.50;;;5.30;;
3197;SDS011;1611;49.394;11.136;2023-05-29T06:00:52;7.67;;;4.50;;
3197;SDS011;1611;49.394;11.136;2023-05-29T06:03:20;6.70;;;5.00;;
3197;SDS011;1611;49.394;11.136;2023-05-29T06:05:47;8.33;;;4.20;;
3197;SDS011;1611;49.394;11.136;2023-05-29T06:08:15;7.90;;;4.83;;
3197;SDS011;1611;49.394;11.136;2023-05-29T06:10:42;8.80;;;4.37;;
3197;SDS011;1611;49.394;11.136;2023-05-29T06:13:10;4.80;;;4.33;;
3197;SDS011;1611;49.394;11.136;2023-05-29T06:15:37;6.83;;;4.50;;
3197;SDS011;1611;49.394;11.136;2023-05-29T06:18:04;7.20;;;4.33;;
3197;SDS011;1611;49.394;11.136;2023-05-29T06:20:32;4.43;;;4.10;;
3197;SDS011;1611;49.394;11.136;2023-05-29T06:22:59;10.93;;;4.50;;
3197;SDS011;1611;49.394;11.136;2023-05-29T06:25:26;4.20;;;3.80;;
3197;SDS011;1611;49.394;11.136;2023-05-29T06:28:01;9.57;;;4.80;;
3197;SDS011;1611;49.394;11.136;2023-05-29T06:30:30;8.07;;;4.60;;
3197;SDS011;1611;49.394;11.136;2023-05-29T06:32:58;8.70;;;4.20;;
3197;SDS011;1611;49.394;11.136;2023-05-29T06:35:25;5.07;;;4.57;;
3197;SDS011;1611;49.394;11.136;2023-05-29T06:37:53;5.20;;;3.60;;
3197;SDS011;1611;49.394;11.136;2023-05-29T06:40:20;6.10;;;3.87;;
3197;SDS011;1611;49.394;11.136;2023-05-29T06:42:46;7.60;;;4.50;;
3197;SDS011;1611;49.394;11.136;2023-05-29T06:45:13;4.60;;;4.00;;
3197;SDS011;1611;49.394;11.136;2023-05-29T06:47:40;6.07;;;4.20;;
3197;SDS011;1611;49.394;11.136;2023-05-29T06:50:08;5.33;;;4.17;;
3197;SDS011;1611;49.394;11.136;2023-05-29T06:52:35;4.53;;;4.10;;
3197;SDS011;1611;49.394;11.136;2023-05-29T06:55:04;7.60;;;3.70;;
3197;SDS011;1611;49.394;11.136;2023-05-29T06:57:31;7.80;;;3.80;;
3197;SDS011;1611;49.394;11.136;2023-05-29T06:59:58;4.50;;;3.90;;
3197;SDS011;1611;49.394;11.136;2023-05-29T07:02:25;7.00;;;3.83;;
3197;SDS011;1611;49.394;11.136;2023-05-29T07:04:51;3.83;;;3.50;;
3197;SDS011;1611;49.394;11.136;2023-05-29T07:07:18;5.10;;;3.87;;
3197;SDS011;1611;49.394;11.136;2023-05-29T07:09:45;10.00;;;4.27;;
3197;SDS011;1611;49.394;11.136;2023-05-29T07:12:13;7.70;;;4.23;;
3197;SDS011;1611;49.394;11.136;2023-05-29T07:14:40;8.63;;;5.20;;
3197;SDS011;1611;49.394;11.136;2023-05-29T07:17:06;3.77;;;3.40;;
3197;SDS011;1611;49.394;11.136;2023-05-29T07:19:33;3.63;;;3.33;;
3197;SDS011;1611;49.394;11.136;2023-05-29T07:22:00;5.50;;;4.47;;
3197;SDS011;1611;49.394;11.136;2023-05-29T07:24:27;8.23;;;3.40;;
3197;SDS011;1611;49.394;11.136;2023-05-29T07:26:53;4.67;;;3.80;;
3197;SDS011;1611;49.394;11.136;2023-05-29T07:29:21;4.60;;;3.33;;
3197;SDS011;1611;49.394;11.136;2023-05-29T07:31:49;14.00;;;4.50;;
3197;SDS011;1611;49.394;11.136;2023-05-29T07:34:16;5.67;;;3.97;;
3197;SDS011;1611;49.394;11.136;2023-05-29T07:36:58;5.57;;;3.63;;
3197;SDS011;1611;49.394;11.136;2023-05-29T07:39:27;5.60;;;3.80;;
3197;SDS011;1611;49.394;11.136;2023-05-29T07:41:54;6.50;;;4.03;;
3197;SDS011;1611;49.394;11.136;2023-05-29T07:44:22;7.03;;;4.00;;
3197;SDS011;1611;49.394;11.136;2023-05-29T07:46:49;10.30;;;4.30;;
3197;SDS011;1611;49.394;11.136;2023-05-29T07:49:16;4.40;;;4.00;;
3197;SDS011;1611;49.394;11.136;2023-05-29T07:51:43;12.60;;;4.30;;
3197;SDS011;1611;49.394;11.136;2023-05-29T07:54:10;4.50;;;3.93;;
3197;SDS011;1611;49.394;11.136;2023-05-29T07:56:37;16.90;;;4.00;;
3197;SDS011;1611;49.394;11.136;2023-05-29T07:59:05;4.00;;;3.60;;
3197;SDS011;1611;49.394;11.136;2023-05-29T08:01:35;3.97;;;3.67;;
3197;SDS011;1611;49.394;11.136;2023-05-29T08:04:04;3.50;;;3.20;;
3197;SDS011;1611;49.394;11.136;2023-05-29T08:06:31;4.93;;;4.10;;
3197;SDS011;1611;49.394;11.136;2023-05-29T08:08:58;9.90;;;4.30;;
3197;SDS011;1611;49.394;11.136;2023-05-29T08:11:26;6.57;;;3.90;;
3197;SDS011;1611;49.394;11.136;2023-05-29T08:13:53;10.87;;;3.73;;
3197;SDS011;1611;49.394;11.136;2023-05-29T08:16:20;4.20;;;3.80;;
3197;SDS011;1611;49.394;11.136;2023-05-29T08:18:48;6.90;;;3.93;;
3197;SDS011;1611;49.394;11.136;2023-05-29T08:21:15;5.03;;;3.63;;
3197;SDS011;1611;49.394;11.136;2023-05-29T08:23:42;4.00;;;3.60;;
3197;SDS011;1611;49.394;11.136;2023-05-29T08:26:10;7.17;;;4.70;;
3197;SDS011;1611;49.394;11.136;2023-05-29T08:28:37;7.90;;;4.17;;
3197;SDS011;1611;49.394;11.136;2023-05-29T08:31:04;8.70;;;3.63;;
3197;SDS011;1611;49.394;11.136;2023-05-29T08:33:31;5.27;;;4.00;;
3197;SDS011;1611;49.394;11.136;2023-05-29T08:35:59;6.53;;;3.50;;
3197;SDS011;1611;49.394;11.136;2023-05-29T08:38:26;3.87;;;3.57;;
3197;SDS011;1611;49.394;11.136;2023-05-29T08:40:53;4.43;;;3.80;;
3197;SDS011;1611;49.394;11.136;2023-05-29T08:43:22;9.07;;;3.70;;
3197;SDS011;1611;49.394;11.136;2023-05-29T08:45:54;5.20;;;3.70;;
3197;SDS011;1611;49.394;11.136;2023-05-29T08:48:22;6.33;;;3.80;;
3197;SDS011;1611;49.394;11.136;2023-05-29T08:50:50;3.70;;;3.37;;
3197;SDS011;1611;49.394;11.136;2023-05-29T08:53:21;9.40;;;4.07;;
3197;SDS011;1611;49.394;11.136;2023-05-29T08:55:49;6.40;;;4.53;;
3197;SDS011;1611;49.394;11.136;2023-05-29T08:58:17;4.40;;;4.00;;
3197;SDS011;1611;49.394;11.136;2023-05-29T09:00:45;7.30;;;4.23;;
3197;SDS011;1611;49.394;11.136;2023-05-29T09:03:12;4.63;;;3.67;;
3197;SDS011;1611;49.394;11.136;2023-05-29T09:05:39;4.40;;;4.10;;
3197;SDS011;1611;49.394;11.136;2023-05-29T09:08:06;4.73;;;4.03;;
3197;SDS011;1611;49.394;11.136;2023-05-29T09:10:38;7.93;;;3.63;;
3197;SDS011;1611;49.394;11.136;2023-05-29T09:13:05;4.60;;;4.20;;
3197;SDS011;1611;49.394;11.136;2023-05-29T09:15:34;4.10;;;3.70;;
3197;SDS011;1611;49.394;11.136;2023-05-29T09:18:01;4.83;;;3.83;;
3197;SDS011;1611;49.394;11.136;2023-05-29T09:20:29;7.80;;;3.90;;
3197;SDS011;1611;49.394;11.136;2023-05-29T09:22:56;6.30;;;3.60;;
3197;SDS011;1611;49.394;11.136;2023-05-29T09:25:26;3.40;;;3.07;;
3197;SDS011;1611;49.394;11.136;2023-05-29T09:27:58;8.00;;;4.40;;
3197;SDS011;1611;49.394;11.136;2023-05-29T09:30:32;4.57;;;3.50;;
3197;SDS011;1611;49.394;11.136;2023-05-29T09:33:03;4.33;;;3.80;;
3197;SDS011;1611;49.394;11.136;2023-05-29T09:35:32;7.03;;;3.77;;
3197;SDS011;1611;49.394;11.136;2023-05-29T09:37:59;4.40;;;3.80;;
3197;SDS011;1611;49.394;11.136;2023-05-29T09:40:29;6.93;;;4.23;;
3197;SDS011;1611;49.394;11.136;2023-05-29T09:42:57;9.00;;;4.00;;
3197;SDS011;1611;49.394;11.136;2023-05-29T09:45:29;7.90;;;4.20;;
3197;SDS011;1611;49.394;11.136;2023-05-29T09:47:57;7.73;;;3.80;;
3197;SDS011;1611;49.394;11.136;2023-05-29T09:50:26;4.10;;;3.70;;
3197;SDS011;1611;49.394;11.136;2023-05-29T09:52:53;3.77;;;3.57;;
3197;SDS011;1611;49.394;11.136;2023-05-29T09:55:22;3.63;;;3.33;;
3197;SDS011;1611;49.394;11.136;2023-05-29T09:57:51;4.13;;;3.90;;
3197;SDS011;1611;49.394;11.136;2023-05-29T10:00:22;6.80;;;3.90;;
3197;SDS011;1611;49.394;11.136;2023-05-29T10:02:49;4.03;;;3.73;;
3197;SDS011;1611;49.394;11.136;2023-05-29T10:05:16;3.80;;;3.50;;
3197;SDS011;1611;49.394;11.136;2023-05-29T10:07:43;4.23;;;3.93;;
3197;SDS011;1611;49.394;11.136;2023-05-29T10:10:13;5.90;;;3.92;;
3197;SDS011;1611;49.394;11.136;2023-05-29T10:12:42;5.80;;;3.50;;
3197;SDS011;1611;49.394;11.136;2023-05-29T10:15:14;4.97;;;4.10;;
3197;SDS011;1611;49.394;11.136;2023-05-29T10:17:45;7.20;;;3.60;;
3197;SDS011;1611;49.394;11.136;2023-05-29T10:20:16;4.43;;;4.10;;
3197;SDS011;1611;49.394;11.136;2023-05-29T10:22:46;5.17;;;4.07;;
3197;SDS011;1611;49.394;11.136;2023-05-29T10:25:14;5.13;;;3.80;;
3197;SDS011;1611;49.394;11.136;2023-05-29T10:27:44;4.23;;;3.73;;
3197;SDS011;1611;49.394;11.136;2023-05-29T10:30:12;6.33;;;4.50;;
3197;SDS011;1611;49.394;11.136;2023-05-29T10:32:52;5.60;;;4.20;;
3197;SDS011;1611;49.394;11.136;2023-05-29T10:35:37;3.67;;;3.37;;
3197;SDS011;1611;49.394;11.136;2023-05-29T10:38:11;5.10;;;3.60;;
3197;SDS011;1611;49.394;11.136;2023-05-29T10:40:40;3.63;;;3.33;;
3197;SDS011;1611;49.394;11.136;2023-05-29T10:43:07;4.23;;;3.90;;
3197;SDS011;1611;49.394;11.136;2023-05-29T10:45:48;6.10;;;4.37;;
3197;SDS011;1611;49.394;11.136;2023-05-29T10:48:39;4.50;;;4.20;;
3197;SDS011;1611;49.394;11.136;2023-05-29T10:51:07;14.07;;;3.50;;
3197;SDS011;1611;49.394;11.136;2023-05-29T10:53:35;5.00;;;4.60;;
3197;SDS011;1611;49.394;11.136;2023-05-29T10:56:07;4.67;;;3.60;;
3197;SDS011;1611;49.394;11.136;2023-05-29T10:58:40;6.93;;;4.00;;
3197;SDS011;1611;49.394;11.136;2023-05-29T11:01:07;3.80;;;3.50;;
3197;SDS011;1611;49.394;11.136;2023-05-29T11:03:34;8.80;;;4.80;;
3197;SDS011;1611;49.394;11.136;2023-05-29T11:06:03;11.63;;;6.03;;
3197;SDS011;1611;49.394;11.136;2023-05-29T11:08:32;4.77;;;4.30;;
3197;SDS011;1611;49.394;11.136;2023-05-29T11:11:01;3.70;;;3.40;;
3197;SDS011;1611;49.394;11.136;2023-05-29T11:13:32;4.23;;;3.93;;
3197;SDS011;1611;49.394;11.136;2023-05-29T11:16:04;6.57;;;3.70;;
3197;SDS011;1611;49.394;11.136;2023-05-29T11:18:35;5.03;;;4.10;;
3197;SDS011;1611;49.394;11.136;2023-05-29T11:21:07;4.40;;;4.00;;
3197;SDS011;1611;49.394;11.136;2023-05-29T11:23:47;4.17;;;3.80;;
3197;SDS011;1611;49.394;11.136;2023-05-29T11:26:16;8.37;;;4.07;;
3197;SDS011;1611;49.394;11.136;2023-05-29T11:28:43;5.67;;;3.97;;
3197;SDS011;1611;49.394;11.136;2023-05-29T11:31:10;4.13;;;3.87;;
3197;SDS011;1611;49.394;11.136;2023-05-29T11:33:40;4.00;;;3.73;;
3197;SDS011;1611;49.394;11.136;2023-05-29T11:36:11;4.27;;;3.97;;
3197;SDS011;1611;49.394;11.136;2023-05-29T11:38:38;4.33;;;4.13;;
3197;SDS011;1611;49.394;11.136;2023-05-29T11:41:04;4.13;;;3.87;;
3197;SDS011;1611;49.394;11.136;2023-05-29T11:43:31;5.00;;;4.70;;
3197;SDS011;1611;49.394;11.136;2023-05-29T11:45:58;5.80;;;4.50;;
3197;SDS011;1611;49.394;11.136;2023-05-29T11:48:25;6.97;;;4.17;;
3197;SDS011;1611;49.394;11.136;2023-05-29T11:50:52;5.37;;;5.03;;
3197;SDS011;1611;49.394;11.136;2023-05-29T11:53:20;5.27;;;4.37;;
3197;SDS011;1611;49.394;11.136;2023-05-29T11:55:47;4.37;;;3.93;;
3197;SDS011;1611;49.394;11.136;2023-05-29T11:58:14;6.23;;;4.70;;
3197;SDS011;1611;49.394;11.136;2023-05-29T12:00:42;5.00;;;4.60;;
3197;SDS011;1611;49.394;11.136;2023-05-29T12:03:10;4.97;;;4.30;;
3197;SDS011;1611;49.394;11.136;2023-05-29T12:05:44;4.83;;;4.50;;
3197;SDS011;1611;49.394;11.136;2023-05-29T12:08:12;5.60;;;5.20;;
3197;SDS011;1611;49.394;11.136;2023-05-29T12:10:46;4.63;;;4.43;;
3197;SDS011;1611;49.394;11.136;2023-05-29T12:13:14;5.40;;;4.93;;
3197;SDS011;1611;49.394;11.136;2023-05-29T12:15:42;5.00;;;4.70;;
3197;SDS011;1611;49.394;11.136;2023-05-29T12:18:09;4.63;;;4.43;;
3197;SDS011;1611;49.394;11.136;2023-05-29T12:20:36;5.00;;;4.70;;
3197;SDS011;1611;49.394;11.136;2023-05-29T12:23:03;5.13;;;4.73;;
3197;SDS011;1611;49.394;11.136;2023-05-29T12:25:33;4.87;;;4.57;;
3197;SDS011;1611;49.394;11.136;2023-05-29T12:28:03;5.43;;;5.13;;
3197;SDS011;1611;49.394;11.136;2023-05-29T12:30:31;5.30;;;5.10;;
3197;SDS011;1611;49.394;11.136;2023-05-29T12:33:03;5.53;;;5.13;;
3197;SDS011;1611;49.394;11.136;2023-05-29T12:35:31;4.73;;;4.53;;
3197;SDS011;1611;49.394;11.136;2023-05-29T12:37:58;5.03;;;4.73;;
3197;SDS011;1611;49.394;11.136;2023-05-29T12:40:26;5.47;;;5.17;;
3197;SDS011;1611;49.394;11.136;2023-05-29T12:42:54;5.60;;;5.37;;
3197;SDS011;1611;49.394;11.136;2023-05-29T12:45:24;6.10;;;5.60;;
3197;SDS011;1611;49.394;11.136;2023-05-29T12:47:52;7.27;;;6.67;;
3197;SDS011;1611;49.394;11.136;2023-05-29T12:50:21;6.00;;;5.70;;
3197;SDS011;1611;49.394;11.136;2023-05-29T12:52:53;5.90;;;5.60;;
3197;SDS011;1611;49.394;11.136;2023-05-29T12:55:21;5.90;;;5.60;;
3197;SDS011;1611;49.394;11.136;2023-05-29T12:57:47;5.40;;;5.20;;
3197;SDS011;1611;49.394;11.136;2023-05-29T13:00:15;6.83;;;6.33;;
3197;SDS011;1611;49.394;11.136;2023-05-29T13:02:44;5.20;;;5.00;;
3197;SDS011;1611;49.394;11.136;2023-05-29T13:05:11;6.17;;;5.77;;
3197;SDS011;1611;49.394;11.136;2023-05-29T13:07:37;6.03;;;5.63;;
3197;SDS011;1611;49.394;11.136;2023-05-29T13:10:05;5.93;;;5.53;;
3197;SDS011;1611;49.394;11.136;2023-05-29T13:12:32;5.80;;;5.50;;
3197;SDS011;1611;49.394;11.136;2023-05-29T13:14:58;5.30;;;5.10;;
3197;SDS011;1611;49.394;11.136;2023-05-29T13:17:25;5.73;;;5.33;;
3197;SDS011;1611;49.394;11.136;2023-05-29T13:19:53;6.10;;;5.80;;
3197;SDS011;1611;49.394;11.136;2023-05-29T13:22:20;5.47;;;5.23;;
3197;SDS011;1611;49.394;11.136;2023-05-29T13:24:47;6.25;;;5.55;;
3197;SDS011;1611;49.394;11.136;2023-05-29T13:27:13;5.63;;;5.23;;
3197;SDS011;1611;49.394;11.136;2023-05-29T13:29:41;6.57;;;6.17;;
3197;SDS011;1611;49.394;11.136;2023-05-29T13:32:08;6.17;;;5.70;;
3197;SDS011;1611;49.394;11.136;2023-05-29T13:34:35;6.10;;;5.70;;
3197;SDS011;1611;49.394;11.136;2023-05-29T13:37:03;5.63;;;5.37;;
3197;SDS011;1611;49.394;11.136;2023-05-29T13:39:30;5.20;;;4.90;;
3197;SDS011;1611;49.394;11.136;2023-05-29T13:41:57;5.30;;;5.00;;
3197;SDS011;1611;49.394;11.136;2023-05-29T13:44:23;5.43;;;5.23;;
3197;SDS011;1611;49.394;11.136;2023-05-29T13:46:50;5.67;;;5.40;;
3197;SDS011;1611;49.394;11.136;2023-05-29T13:49:17;5.70;;;5.40;;
3197;SDS011;1611;49.394;11.136;2023-05-29T13:51:44;5.73;;;5.53;;
3197;SDS011;1611;49.394;11.136;2023-05-29T13:54:15;6.87;;;6.13;;
3197;SDS011;1611;49.394;11.136;2023-05-29T13:56:42;7.93;;;6.33;;
3197;SDS011;1611;49.394;11.136;2023-05-29T13:59:09;6.30;;;6.00;;
3197;SDS011;1611;49.394;11.136;2023-05-29T14:01:36;5.90;;;5.60;;
3197;SDS011;1611;49.394;11.136;2023-05-29T14:04:04;6.37;;;5.97;;
3197;SDS011;1611;49.394;11.136;2023-05-29T14:06:31;5.97;;;5.67;;
3197;SDS011;1611;49.394;11.136;2023-05-29T14:08:59;6.00;;;5.60;;
3197;SDS011;1611;49.394;11.136;2023-05-29T14:11:28;5.87;;;5.67;;
3197;SDS011;1611;49.394;11.136;2023-05-29T14:13:55;6.07;;;5.77;;
3197;SDS011;1611;49.394;11.136;2023-05-29T14:16:22;6.87;;;6.10;;
3197;SDS011;1611;49.394;11.136;2023-05-29T14:18:48;6.43;;;5.93;;
3197;SDS011;1611;49.394;11.136;2023-05-29T14:21:15;6.47;;;5.87;;
3197;SDS011;1611;49.394;11.136;2023-05-29T14:23:42;5.90;;;5.57;;
3197;SDS011;1611;49.394;11.136;2023-05-29T14:26:09;5.53;;;5.30;;
3197;SDS011;1611;49.394;11.136;2023-05-29T14:28:37;6.00;;;5.70;;
3197;SDS011;1611;49.394;11.136;2023-05-29T14:31:04;6.53;;;6.03;;
3197;SDS011;1611;49.394;11.136;2023-05-29T14:33:31;6.10;;;5.80;;
3197;SDS011;1611;49.394;11.136;2023-05-29T14:35:58;5.63;;;5.33;;
3197;SDS011;1611;49.394;11.136;2023-05-29T14:38:25;5.20;;;5.00;;
3197;SDS011;1611;49.394;11.136;2023-05-29T14:40:51;4.90;;;4.43;;
3197;SDS011;1611;49.394;11.136;2023-05-29T14:43:18;5.13;;;4.83;;
3197;SDS011;1611;49.394;11.136;2023-05-29T14:45:46;4.53;;;4.23;;
3197;SDS011;1611;49.394;11.136;2023-05-29T14:48:13;4.40;;;4.17;;
3197;SDS011;1611;49.394;11.136;2023-05-29T14:50:41;6.60;;;3.80;;
3197;SDS011;1611;49.394;11.136;2023-05-29T14:53:08;4.27;;;4.07;;
3197;SDS011;1611;49.394;11.136;2023-05-29T14:55:35;4.90;;;4.57;;
3197;SDS011;1611;49.394;11.136;2023-05-29T14:58:02;4.53;;;4.33;;
3197;SDS011;1611;49.394;11.136;2023-05-29T15:00:29;4.60;;;4.30;;
3197;SDS011;1611;49.394;11.136;2023-05-29T15:02:58;9.20;;;4.50;;
3197;SDS011;1611;49.394;11.136;2023-05-29T15:05:25;4.10;;;3.80;;